Aviation Digital Data Service (ADDS)

Output produced by METARs form (1547 UTC 12 December 2017)
found at http://www.aviationweather.gov/adds/metars/
 
METAR text: K2G4 121530Z AUTO 29011G22KT 252V322 2SM OVC004 M03/M03 A2953 RMK AO1
Conditions at: K2G4 (GARRETT CO , MD, US) observed 1530 UTC 12 December 2017
Temperature: -3.0°C (27°F)
Dewpoint: -3.0°C (27°F) [RH = 100%]
Pressure (altimeter): 29.53 inches Hg (1000.1 mb)
Winds: from the WNW (290 degrees) at 13 MPH (11 knots; 5.7 m/s)
gusting to 25 MPH (22 knots; 11.4 m/s)
Visibility: 2.00 miles (3.22 km)
Ceiling: 400 feet AGL
Clouds: overcast cloud deck at 400 feet AGL
Weather: automated observation with no human augmentation;
there may or may not be significant weather present at this time

METAR text: K2G4 121510Z AUTO 28014G24KT 1 3/4SM OVC006 M02/M03 A2952 RMK AO1
Conditions at: K2G4 (GARRETT CO , MD, US) observed 1510 UTC 12 December 2017
Temperature: -2.0°C (28°F)
Dewpoint: -3.0°C (27°F) [RH = 93%]
Pressure (altimeter): 29.52 inches Hg (999.7 mb)
Winds: from the W (280 degrees) at 16 MPH (14 knots; 7.3 m/s)
gusting to 28 MPH (24 knots; 12.5 m/s)
Visibility: 1.75 miles (2.82 km)
Ceiling: 600 feet AGL
Clouds: overcast cloud deck at 600 feet AGL
Weather: automated observation with no human augmentation;
there may or may not be significant weather present at this time

METAR text: K2G4 121450Z AUTO 27014G22KT 3SM OVC008 M02/M03 A2952 RMK AO1
Conditions at: K2G4 (GARRETT CO , MD, US) observed 1450 UTC 12 December 2017
Temperature: -2.0°C (28°F)
Dewpoint: -3.0°C (27°F) [RH = 93%]
Pressure (altimeter): 29.52 inches Hg (999.7 mb)
Winds: from the W (270 degrees) at 16 MPH (14 knots; 7.3 m/s)
gusting to 25 MPH (22 knots; 11.4 m/s)
Visibility: 3 miles (5 km)
Ceiling: 800 feet AGL
Clouds: overcast cloud deck at 800 feet AGL
Weather: automated observation with no human augmentation;
there may or may not be significant weather present at this time

METAR text: K2G4 121430Z AUTO 28012G23KT 4SM OVC008 M02/M02 A2951 RMK AO1
Conditions at: K2G4 (GARRETT CO , MD, US) observed 1430 UTC 12 December 2017
Temperature: -2.0°C (28°F)
Dewpoint: -2.0°C (28°F) [RH = 100%]
Pressure (altimeter): 29.51 inches Hg (999.4 mb)
Winds: from the W (280 degrees) at 14 MPH (12 knots; 6.2 m/s)
gusting to 26 MPH (23 knots; 12.0 m/s)
Visibility: 4 miles (6 km)
Ceiling: 800 feet AGL
Clouds: overcast cloud deck at 800 feet AGL
Weather: automated observation with no human augmentation;
there may or may not be significant weather present at this time

METAR text: K2G4 121410Z AUTO 27009G19KT 2 1/2SM BKN008 OVC013 M01/M02 A2951 RMK AO1
Conditions at: K2G4 (GARRETT CO , MD, US) observed 1410 UTC 12 December 2017
Temperature: -1.0°C (30°F)
Dewpoint: -2.0°C (28°F) [RH = 93%]
Pressure (altimeter): 29.51 inches Hg (999.4 mb)
Winds: from the W (270 degrees) at 10 MPH (9 knots; 4.7 m/s)
gusting to 22 MPH (19 knots; 9.9 m/s)
Visibility: 2.50 miles (4.02 km)
Ceiling: 800 feet AGL
Clouds: broken clouds at 800 feet AGL
overcast cloud deck at 1300 feet AGL
Weather: automated observation with no human augmentation;
there may or may not be significant weather present at this time

METAR text: K2G4 121350Z AUTO 27010G15KT 3SM SCT004 OVC013 M01/M03 A2951 RMK AO1
Conditions at: K2G4 (GARRETT CO , MD, US) observed 1350 UTC 12 December 2017
Temperature: -1.0°C (30°F)
Dewpoint: -3.0°C (27°F) [RH = 86%]
Pressure (altimeter): 29.51 inches Hg (999.4 mb)
Winds: from the W (270 degrees) at 12 MPH (10 knots; 5.2 m/s)
gusting to 17 MPH (15 knots; 7.8 m/s)
Visibility: 3 miles (5 km)
Ceiling: 1300 feet AGL
Clouds: scattered clouds at 400 feet AGL
overcast cloud deck at 1300 feet AGL
Weather: automated observation with no human augmentation;
there may or may not be significant weather present at this time

METAR text: K2G4 121330Z AUTO 26013G23KT 232V302 7SM SCT015 M01/M04 A2950 RMK AO1
Conditions at: K2G4 (GARRETT CO , MD, US) observed 1330 UTC 12 December 2017
Temperature: -1.0°C (30°F)
Dewpoint: -4.0°C (25°F) [RH = 80%]
Pressure (altimeter): 29.50 inches Hg (999.1 mb)
Winds: from the W (260 degrees) at 15 MPH (13 knots; 6.8 m/s)
gusting to 26 MPH (23 knots; 12.0 m/s)
Visibility: 7 miles (11 km)
Ceiling: at least 12,000 feet AGL
Clouds: scattered clouds at 1500 feet AGL
Weather: automated observation with no human augmentation;
there may or may not be significant weather present at this time

METAR text: K2G4 121310Z AUTO 26011G21KT 10SM BKN021 00/M04 A2950 RMK AO1
Conditions at: K2G4 (GARRETT CO , MD, US) observed 1310 UTC 12 December 2017
Temperature: 0.0°C (32°F)
Dewpoint: -4.0°C (25°F) [RH = 74%]
Pressure (altimeter): 29.50 inches Hg (999.1 mb)
Winds: from the W (260 degrees) at 13 MPH (11 knots; 5.7 m/s)
gusting to 24 MPH (21 knots; 10.9 m/s)
Visibility: 10 or more miles (16+ km)
Ceiling: 2100 feet AGL
Clouds: broken clouds at 2100 feet AGL
Weather: automated observation with no human augmentation;
there may or may not be significant weather present at this time

METAR text: K2G4 121250Z AUTO 25016G23KT 10SM BKN021 OVC028 00/M05 A2950 RMK AO1
Conditions at: K2G4 (GARRETT CO , MD, US) observed 1250 UTC 12 December 2017
Temperature: 0.0°C (32°F)
Dewpoint: -5.0°C (23°F) [RH = 69%]
Pressure (altimeter): 29.50 inches Hg (999.1 mb)
Winds: from the WSW (250 degrees) at 18 MPH (16 knots; 8.3 m/s)
gusting to 26 MPH (23 knots; 12.0 m/s)
Visibility: 10 or more miles (16+ km)
Ceiling: 2100 feet AGL
Clouds: broken clouds at 2100 feet AGL
overcast cloud deck at 2800 feet AGL
Weather: automated observation with no human augmentation;
there may or may not be significant weather present at this time

METAR text: K2G4 121230Z AUTO 26015G27KT 242V312 10SM BKN025 OVC032 00/M05 A2950 RMK AO1
Conditions at: K2G4 (GARRETT CO , MD, US) observed 1230 UTC 12 December 2017
Temperature: 0.0°C (32°F)
Dewpoint: -5.0°C (23°F) [RH = 69%]
Pressure (altimeter): 29.50 inches Hg (999.1 mb)
Winds: from the W (260 degrees) at 17 MPH (15 knots; 7.8 m/s)
gusting to 31 MPH (27 knots; 14.0 m/s)
Visibility: 10 or more miles (16+ km)
Ceiling: 2500 feet AGL
Clouds: broken clouds at 2500 feet AGL
overcast cloud deck at 3200 feet AGL
Weather: automated observation with no human augmentation;
there may or may not be significant weather present at this time

METAR text: K2G4 121210Z AUTO 26011G19KT 10SM BKN025 OVC032 00/M04 A2950 RMK AO1
Conditions at: K2G4 (GARRETT CO , MD, US) observed 1210 UTC 12 December 2017
Temperature: 0.0°C (32°F)
Dewpoint: -4.0°C (25°F) [RH = 74%]
Pressure (altimeter): 29.50 inches Hg (999.1 mb)
Winds: from the W (260 degrees) at 13 MPH (11 knots; 5.7 m/s)
gusting to 22 MPH (19 knots; 9.9 m/s)
Visibility: 10 or more miles (16+ km)
Ceiling: 2500 feet AGL
Clouds: broken clouds at 2500 feet AGL
overcast cloud deck at 3200 feet AGL
Weather: automated observation with no human augmentation;
there may or may not be significant weather present at this time

METAR text: K2G4 121150Z AUTO 25010G16KT 232V302 10SM SCT023 BKN032 00/M04 A2950 RMK AO1
Conditions at: K2G4 (GARRETT CO , MD, US) observed 1150 UTC 12 December 2017
Temperature: 0.0°C (32°F)
Dewpoint: -4.0°C (25°F) [RH = 74%]
Pressure (altimeter): 29.50 inches Hg (999.1 mb)
Winds: from the WSW (250 degrees) at 12 MPH (10 knots; 5.2 m/s)
gusting to 18 MPH (16 knots; 8.3 m/s)
Visibility: 10 or more miles (16+ km)
Ceiling: 3200 feet AGL
Clouds: scattered clouds at 2300 feet AGL
broken clouds at 3200 feet AGL
Weather: automated observation with no human augmentation;
there may or may not be significant weather present at this time

METAR text: K2G4 121130Z AUTO 26009G21KT 10SM BKN026 00/M04 A2950 RMK AO1
Conditions at: K2G4 (GARRETT CO , MD, US) observed 1130 UTC 12 December 2017
Temperature: 0.0°C (32°F)
Dewpoint: -4.0°C (25°F) [RH = 74%]
Pressure (altimeter): 29.50 inches Hg (999.1 mb)
Winds: from the W (260 degrees) at 10 MPH (9 knots; 4.7 m/s)
gusting to 24 MPH (21 knots; 10.9 m/s)
Visibility: 10 or more miles (16+ km)
Ceiling: 2600 feet AGL
Clouds: broken clouds at 2600 feet AGL
Weather: automated observation with no human augmentation;
there may or may not be significant weather present at this time

METAR text: K2G4 121110Z AUTO 27010G22KT 10SM OVC029 00/M04 A2950 RMK AO1
Conditions at: K2G4 (GARRETT CO , MD, US) observed 1110 UTC 12 December 2017
Temperature: 0.0°C (32°F)
Dewpoint: -4.0°C (25°F) [RH = 74%]
Pressure (altimeter): 29.50 inches Hg (999.1 mb)
Winds: from the W (270 degrees) at 12 MPH (10 knots; 5.2 m/s)
gusting to 25 MPH (22 knots; 11.4 m/s)
Visibility: 10 or more miles (16+ km)
Ceiling: 2900 feet AGL
Clouds: overcast cloud deck at 2900 feet AGL
Weather: automated observation with no human augmentation;
there may or may not be significant weather present at this time

METAR text: K2G4 121050Z AUTO 27010G16KT 10SM OVC031 01/M04 A2950 RMK AO1
Conditions at: K2G4 (GARRETT CO , MD, US) observed 1050 UTC 12 December 2017
Temperature: 1.0°C (34°F)
Dewpoint: -4.0°C (25°F) [RH = 69%]
Pressure (altimeter): 29.50 inches Hg (999.1 mb)
Winds: from the W (270 degrees) at 12 MPH (10 knots; 5.2 m/s)
gusting to 18 MPH (16 knots; 8.3 m/s)
Visibility: 10 or more miles (16+ km)
Ceiling: 3100 feet AGL
Clouds: overcast cloud deck at 3100 feet AGL
Weather: automated observation with no human augmentation;
there may or may not be significant weather present at this time

METAR text: K2G4 121030Z AUTO 26013G23KT 10SM OVC033 01/M04 A2950 RMK AO1
Conditions at: K2G4 (GARRETT CO , MD, US) observed 1030 UTC 12 December 2017
Temperature: 1.0°C (34°F)
Dewpoint: -4.0°C (25°F) [RH = 69%]
Pressure (altimeter): 29.50 inches Hg (999.1 mb)
Winds: from the W (260 degrees) at 15 MPH (13 knots; 6.8 m/s)
gusting to 26 MPH (23 knots; 12.0 m/s)
Visibility: 10 or more miles (16+ km)
Ceiling: 3300 feet AGL
Clouds: overcast cloud deck at 3300 feet AGL
Weather: automated observation with no human augmentation;
there may or may not be significant weather present at this time

METAR text: K2G4 121010Z AUTO 26012G21KT 222V282 10SM BKN033 OVC041 01/M04 A2951 RMK AO1
Conditions at: K2G4 (GARRETT CO , MD, US) observed 1010 UTC 12 December 2017
Temperature: 1.0°C (34°F)
Dewpoint: -4.0°C (25°F) [RH = 69%]
Pressure (altimeter): 29.51 inches Hg (999.4 mb)
Winds: from the W (260 degrees) at 14 MPH (12 knots; 6.2 m/s)
gusting to 24 MPH (21 knots; 10.9 m/s)
Visibility: 10 or more miles (16+ km)
Ceiling: 3300 feet AGL
Clouds: broken clouds at 3300 feet AGL
overcast cloud deck at 4100 feet AGL
Weather: automated observation with no human augmentation;
there may or may not be significant weather present at this time

METAR text: K2G4 120950Z AUTO 25020G28KT 10SM BKN033 OVC041 01/M04 A2952 RMK AO1
Conditions at: K2G4 (GARRETT CO , MD, US) observed 0950 UTC 12 December 2017
Temperature: 1.0°C (34°F)
Dewpoint: -4.0°C (25°F) [RH = 69%]
Pressure (altimeter): 29.52 inches Hg (999.7 mb)
Winds: from the WSW (250 degrees) at 23 MPH (20 knots; 10.4 m/s)
gusting to 32 MPH (28 knots; 14.6 m/s)
Visibility: 10 or more miles (16+ km)
Ceiling: 3300 feet AGL
Clouds: broken clouds at 3300 feet AGL
overcast cloud deck at 4100 feet AGL
Weather: automated observation with no human augmentation;
there may or may not be significant weather present at this time

METAR text: K2G4 120930Z AUTO 26015G22KT 10SM OVC033 02/M03 A2952 RMK AO1
Conditions at: K2G4 (GARRETT CO , MD, US) observed 0930 UTC 12 December 2017
Temperature: 2.0°C (36°F)
Dewpoint: -3.0°C (27°F) [RH = 69%]
Pressure (altimeter): 29.52 inches Hg (999.7 mb)
Winds: from the W (260 degrees) at 17 MPH (15 knots; 7.8 m/s)
gusting to 25 MPH (22 knots; 11.4 m/s)
Visibility: 10 or more miles (16+ km)
Ceiling: 3300 feet AGL
Clouds: overcast cloud deck at 3300 feet AGL
Weather: automated observation with no human augmentation;
there may or may not be significant weather present at this time

METAR text: K2G4 120910Z AUTO 25015G22KT 10SM BKN033 BKN040 02/M03 A2952 RMK AO1
Conditions at: K2G4 (GARRETT CO , MD, US) observed 0910 UTC 12 December 2017
Temperature: 2.0°C (36°F)
Dewpoint: -3.0°C (27°F) [RH = 69%]
Pressure (altimeter): 29.52 inches Hg (999.7 mb)
Winds: from the WSW (250 degrees) at 17 MPH (15 knots; 7.8 m/s)
gusting to 25 MPH (22 knots; 11.4 m/s)
Visibility: 10 or more miles (16+ km)
Ceiling: 3300 feet AGL
Clouds: broken clouds at 3300 feet AGL
broken clouds at 4000 feet AGL
Weather: automated observation with no human augmentation;
there may or may not be significant weather present at this time

METAR text: K2G4 120850Z AUTO 24015G20KT 10SM BKN033 BKN039 BKN060 03/M03 A2952 RMK AO1
Conditions at: K2G4 (GARRETT CO , MD, US) observed 0850 UTC 12 December 2017
Temperature: 3.0°C (37°F)
Dewpoint: -3.0°C (27°F) [RH = 65%]
Pressure (altimeter): 29.52 inches Hg (999.7 mb)
Winds: from the WSW (240 degrees) at 17 MPH (15 knots; 7.8 m/s)
gusting to 23 MPH (20 knots; 10.4 m/s)
Visibility: 10 or more miles (16+ km)
Ceiling: 3300 feet AGL
Clouds: broken clouds at 3300 feet AGL
broken clouds at 3900 feet AGL
broken clouds at 6000 feet AGL
Weather: automated observation with no human augmentation;
there may or may not be significant weather present at this time

METAR text: K2G4 120830Z AUTO 24010G17KT 10SM SCT012 SCT020 SCT065 02/M02 A2953 RMK AO1
Conditions at: K2G4 (GARRETT CO , MD, US) observed 0830 UTC 12 December 2017
Temperature: 2.0°C (36°F)
Dewpoint: -2.0°C (28°F) [RH = 75%]
Pressure (altimeter): 29.53 inches Hg (1000.1 mb)
Winds: from the WSW (240 degrees) at 12 MPH (10 knots; 5.2 m/s)
gusting to 20 MPH (17 knots; 8.8 m/s)
Visibility: 10 or more miles (16+ km)
Ceiling: at least 12,000 feet AGL
Clouds: scattered clouds at 1200 feet AGL
scattered clouds at 2000 feet AGL
scattered clouds at 6500 feet AGL
Weather: automated observation with no human augmentation;
there may or may not be significant weather present at this time

METAR text: K2G4 120810Z AUTO 23008G25KT 10SM BKN012 BKN020 02/M02 A2954 RMK AO1
Conditions at: K2G4 (GARRETT CO , MD, US) observed 0810 UTC 12 December 2017
Temperature: 2.0°C (36°F)
Dewpoint: -2.0°C (28°F) [RH = 75%]
Pressure (altimeter): 29.54 inches Hg (1000.4 mb)
Winds: from the SW (230 degrees) at 9 MPH (8 knots; 4.2 m/s)
gusting to 29 MPH (25 knots; 13.0 m/s)
Visibility: 10 or more miles (16+ km)
Ceiling: 1200 feet AGL
Clouds: broken clouds at 1200 feet AGL
broken clouds at 2000 feet AGL
Weather: automated observation with no human augmentation;
there may or may not be significant weather present at this time

METAR text: K2G4 120750Z AUTO 25014G22KT 10SM CLR 03/M03 A2954 RMK AO1
Conditions at: K2G4 (GARRETT CO , MD, US) observed 0750 UTC 12 December 2017
Temperature: 3.0°C (37°F)
Dewpoint: -3.0°C (27°F) [RH = 65%]
Pressure (altimeter): 29.54 inches Hg (1000.4 mb)
Winds: from the WSW (250 degrees) at 16 MPH (14 knots; 7.3 m/s)
gusting to 25 MPH (22 knots; 11.4 m/s)
Visibility: 10 or more miles (16+ km)
Ceiling: at least 12,000 feet AGL
Clouds: sky clear below 12,000 feet AGL
Weather: automated observation with no human augmentation;
there may or may not be significant weather present at this time

METAR text: K2G4 120730Z AUTO 25013G22KT 10SM CLR 03/M03 A2954 RMK AO1
Conditions at: K2G4 (GARRETT CO , MD, US) observed 0730 UTC 12 December 2017
Temperature: 3.0°C (37°F)
Dewpoint: -3.0°C (27°F) [RH = 65%]
Pressure (altimeter): 29.54 inches Hg (1000.4 mb)
Winds: from the WSW (250 degrees) at 15 MPH (13 knots; 6.8 m/s)
gusting to 25 MPH (22 knots; 11.4 m/s)
Visibility: 10 or more miles (16+ km)
Ceiling: at least 12,000 feet AGL
Clouds: sky clear below 12,000 feet AGL
Weather: automated observation with no human augmentation;
there may or may not be significant weather present at this time

METAR text: K2G4 120710Z AUTO 23012G22KT 192V252 10SM CLR 04/M03 A2955 RMK AO1
Conditions at: K2G4 (GARRETT CO , MD, US) observed 0710 UTC 12 December 2017
Temperature: 4.0°C (39°F)
Dewpoint: -3.0°C (27°F) [RH = 60%]
Pressure (altimeter): 29.55 inches Hg (1000.8 mb)
Winds: from the SW (230 degrees) at 14 MPH (12 knots; 6.2 m/s)
gusting to 25 MPH (22 knots; 11.4 m/s)
Visibility: 10 or more miles (16+ km)
Ceiling: at least 12,000 feet AGL
Clouds: sky clear below 12,000 feet AGL
Weather: automated observation with no human augmentation;
there may or may not be significant weather present at this time

METAR text: K2G4 120650Z AUTO 22012G22KT 10SM CLR 03/M04 A2956 RMK AO1
Conditions at: K2G4 (GARRETT CO , MD, US) observed 0650 UTC 12 December 2017
Temperature: 3.0°C (37°F)
Dewpoint: -4.0°C (25°F) [RH = 60%]
Pressure (altimeter): 29.56 inches Hg (1001.1 mb)
Winds: from the SW (220 degrees) at 14 MPH (12 knots; 6.2 m/s)
gusting to 25 MPH (22 knots; 11.4 m/s)
Visibility: 10 or more miles (16+ km)
Ceiling: at least 12,000 feet AGL
Clouds: sky clear below 12,000 feet AGL
Weather: automated observation with no human augmentation;
there may or may not be significant weather present at this time

METAR text: K2G4 120630Z AUTO 23009G18KT 10SM CLR 03/M04 A2957 RMK AO1
Conditions at: K2G4 (GARRETT CO , MD, US) observed 0630 UTC 12 December 2017
Temperature: 3.0°C (37°F)
Dewpoint: -4.0°C (25°F) [RH = 60%]
Pressure (altimeter): 29.57 inches Hg (1001.4 mb)
Winds: from the SW (230 degrees) at 10 MPH (9 knots; 4.7 m/s)
gusting to 21 MPH (18 knots; 9.4 m/s)
Visibility: 10 or more miles (16+ km)
Ceiling: at least 12,000 feet AGL
Clouds: sky clear below 12,000 feet AGL
Weather: automated observation with no human augmentation;
there may or may not be significant weather present at this time

METAR text: K2G4 120610Z AUTO 22013G18KT 10SM CLR 03/M04 A2958 RMK AO1
Conditions at: K2G4 (GARRETT CO , MD, US) observed 0610 UTC 12 December 2017
Temperature: 3.0°C (37°F)
Dewpoint: -4.0°C (25°F) [RH = 60%]
Pressure (altimeter): 29.58 inches Hg (1001.8 mb)
Winds: from the SW (220 degrees) at 15 MPH (13 knots; 6.8 m/s)
gusting to 21 MPH (18 knots; 9.4 m/s)
Visibility: 10 or more miles (16+ km)
Ceiling: at least 12,000 feet AGL
Clouds: sky clear below 12,000 feet AGL
Weather: automated observation with no human augmentation;
there may or may not be significant weather present at this time

METAR text: K2G4 120550Z AUTO 21009G14KT 10SM CLR 02/M05 A2959 RMK AO1
Conditions at: K2G4 (GARRETT CO , MD, US) observed 0550 UTC 12 December 2017
Temperature: 2.0°C (36°F)
Dewpoint: -5.0°C (23°F) [RH = 60%]
Pressure (altimeter): 29.59 inches Hg (1002.1 mb)
Winds: from the SSW (210 degrees) at 10 MPH (9 knots; 4.7 m/s)
gusting to 16 MPH (14 knots; 7.3 m/s)
Visibility: 10 or more miles (16+ km)
Ceiling: at least 12,000 feet AGL
Clouds: sky clear below 12,000 feet AGL
Weather: automated observation with no human augmentation;
there may or may not be significant weather present at this time

METAR text: K2G4 120530Z AUTO 21008KT 10SM CLR 02/M05 A2960 RMK AO1
Conditions at: K2G4 (GARRETT CO , MD, US) observed 0530 UTC 12 December 2017
Temperature: 2.0°C (36°F)
Dewpoint: -5.0°C (23°F) [RH = 60%]
Pressure (altimeter): 29.60 inches Hg (1002.5 mb)
Winds: from the SSW (210 degrees) at 9 MPH (8 knots; 4.2 m/s)
Visibility: 10 or more miles (16+ km)
Ceiling: at least 12,000 feet AGL
Clouds: sky clear below 12,000 feet AGL
Weather: automated observation with no human augmentation;
there may or may not be significant weather present at this time

METAR text: K2G4 120510Z AUTO 20008KT 10SM CLR 01/M05 A2961 RMK AO1
Conditions at: K2G4 (GARRETT CO , MD, US) observed 0510 UTC 12 December 2017
Temperature: 1.0°C (34°F)
Dewpoint: -5.0°C (23°F) [RH = 64%]
Pressure (altimeter): 29.61 inches Hg (1002.8 mb)
Winds: from the SSW (200 degrees) at 9 MPH (8 knots; 4.2 m/s)
Visibility: 10 or more miles (16+ km)
Ceiling: at least 12,000 feet AGL
Clouds: sky clear below 12,000 feet AGL
Weather: automated observation with no human augmentation;
there may or may not be significant weather present at this time

METAR text: K2G4 120450Z AUTO 18008KT 10SM CLR 00/M06 A2963 RMK AO1
Conditions at: K2G4 (GARRETT CO , MD, US) observed 0450 UTC 12 December 2017
Temperature: 0.0°C (32°F)
Dewpoint: -6.0°C (21°F) [RH = 64%]
Pressure (altimeter): 29.63 inches Hg (1003.5 mb)
Winds: from the S (180 degrees) at 9 MPH (8 knots; 4.2 m/s)
Visibility: 10 or more miles (16+ km)
Ceiling: at least 12,000 feet AGL
Clouds: sky clear below 12,000 feet AGL
Weather: automated observation with no human augmentation;
there may or may not be significant weather present at this time

METAR text: K2G4 120430Z AUTO 17009KT 10SM CLR 01/M06 A2963 RMK AO1
Conditions at: K2G4 (GARRETT CO , MD, US) observed 0430 UTC 12 December 2017
Temperature: 1.0°C (34°F)
Dewpoint: -6.0°C (21°F) [RH = 59%]
Pressure (altimeter): 29.63 inches Hg (1003.5 mb)
Winds: from the S (170 degrees) at 10 MPH (9 knots; 4.7 m/s)
Visibility: 10 or more miles (16+ km)
Ceiling: at least 12,000 feet AGL
Clouds: sky clear below 12,000 feet AGL
Weather: automated observation with no human augmentation;
there may or may not be significant weather present at this time

METAR text: K2G4 120410Z AUTO 16008KT 10SM CLR 00/M06 A2964 RMK AO1
Conditions at: K2G4 (GARRETT CO , MD, US) observed 0410 UTC 12 December 2017
Temperature: 0.0°C (32°F)
Dewpoint: -6.0°C (21°F) [RH = 64%]
Pressure (altimeter): 29.64 inches Hg (1003.8 mb)
Winds: from the SSE (160 degrees) at 9 MPH (8 knots; 4.2 m/s)
Visibility: 10 or more miles (16+ km)
Ceiling: at least 12,000 feet AGL
Clouds: sky clear below 12,000 feet AGL
Weather: automated observation with no human augmentation;
there may or may not be significant weather present at this time

METAR text: K2G4 120350Z AUTO 16008KT 10SM CLR 00/M07 A2966 RMK AO1
Conditions at: K2G4 (GARRETT CO , MD, US) observed 0350 UTC 12 December 2017
Temperature: 0.0°C (32°F)
Dewpoint: -7.0°C (19°F) [RH = 59%]
Pressure (altimeter): 29.66 inches Hg (1004.5 mb)
Winds: from the SSE (160 degrees) at 9 MPH (8 knots; 4.2 m/s)
Visibility: 10 or more miles (16+ km)
Ceiling: at least 12,000 feet AGL
Clouds: sky clear below 12,000 feet AGL
Weather: automated observation with no human augmentation;
there may or may not be significant weather present at this time

METAR text: K2G4 120330Z AUTO 16007KT 10SM CLR 00/M07 A2967 RMK AO1
Conditions at: K2G4 (GARRETT CO , MD, US) observed 0330 UTC 12 December 2017
Temperature: 0.0°C (32°F)
Dewpoint: -7.0°C (19°F) [RH = 59%]
Pressure (altimeter): 29.67 inches Hg (1004.8 mb)
Winds: from the SSE (160 degrees) at 8 MPH (7 knots; 3.6 m/s)
Visibility: 10 or more miles (16+ km)
Ceiling: at least 12,000 feet AGL
Clouds: sky clear below 12,000 feet AGL
Weather: automated observation with no human augmentation;
there may or may not be significant weather present at this time

METAR text: K2G4 120310Z AUTO 16007KT 10SM CLR 00/M07 A2968 RMK AO1
Conditions at: K2G4 (GARRETT CO , MD, US) observed 0310 UTC 12 December 2017
Temperature: 0.0°C (32°F)
Dewpoint: -7.0°C (19°F) [RH = 59%]
Pressure (altimeter): 29.68 inches Hg (1005.2 mb)
Winds: from the SSE (160 degrees) at 8 MPH (7 knots; 3.6 m/s)
Visibility: 10 or more miles (16+ km)
Ceiling: at least 12,000 feet AGL
Clouds: sky clear below 12,000 feet AGL
Weather: automated observation with no human augmentation;
there may or may not be significant weather present at this time

METAR text: K2G4 120250Z AUTO 14008KT 10SM CLR 00/M07 A2968 RMK AO1
Conditions at: K2G4 (GARRETT CO , MD, US) observed 0250 UTC 12 December 2017
Temperature: 0.0°C (32°F)
Dewpoint: -7.0°C (19°F) [RH = 59%]
Pressure (altimeter): 29.68 inches Hg (1005.2 mb)
Winds: from the SE (140 degrees) at 9 MPH (8 knots; 4.2 m/s)
Visibility: 10 or more miles (16+ km)
Ceiling: at least 12,000 feet AGL
Clouds: sky clear below 12,000 feet AGL
Weather: automated observation with no human augmentation;
there may or may not be significant weather present at this time

METAR text: K2G4 120230Z AUTO 14007KT 10SM CLR 00/M08 A2969 RMK AO1
Conditions at: K2G4 (GARRETT CO , MD, US) observed 0230 UTC 12 December 2017
Temperature: 0.0°C (32°F)
Dewpoint: -8.0°C (18°F) [RH = 55%]
Pressure (altimeter): 29.69 inches Hg (1005.5 mb)
Winds: from the SE (140 degrees) at 8 MPH (7 knots; 3.6 m/s)
Visibility: 10 or more miles (16+ km)
Ceiling: at least 12,000 feet AGL
Clouds: sky clear below 12,000 feet AGL
Weather: automated observation with no human augmentation;
there may or may not be significant weather present at this time

METAR text: K2G4 120210Z AUTO 15007KT 10SM CLR 00/M08 A2970 RMK AO1
Conditions at: K2G4 (GARRETT CO , MD, US) observed 0210 UTC 12 December 2017
Temperature: 0.0°C (32°F)
Dewpoint: -8.0°C (18°F) [RH = 55%]
Pressure (altimeter): 29.70 inches Hg (1005.8 mb)
Winds: from the SSE (150 degrees) at 8 MPH (7 knots; 3.6 m/s)
Visibility: 10 or more miles (16+ km)
Ceiling: at least 12,000 feet AGL
Clouds: sky clear below 12,000 feet AGL
Weather: automated observation with no human augmentation;
there may or may not be significant weather present at this time

METAR text: K2G4 120150Z AUTO 15008KT 10SM CLR 00/M08 A2970 RMK AO1
Conditions at: K2G4 (GARRETT CO , MD, US) observed 0150 UTC 12 December 2017
Temperature: 0.0°C (32°F)
Dewpoint: -8.0°C (18°F) [RH = 55%]
Pressure (altimeter): 29.70 inches Hg (1005.8 mb)
Winds: from the SSE (150 degrees) at 9 MPH (8 knots; 4.2 m/s)
Visibility: 10 or more miles (16+ km)
Ceiling: at least 12,000 feet AGL
Clouds: sky clear below 12,000 feet AGL
Weather: automated observation with no human augmentation;
there may or may not be significant weather present at this time

METAR text: K2G4 120130Z AUTO 15008KT 10SM CLR 01/M08 A2971 RMK AO1
Conditions at: K2G4 (GARRETT CO , MD, US) observed 0130 UTC 12 December 2017
Temperature: 1.0°C (34°F)
Dewpoint: -8.0°C (18°F) [RH = 51%]
Pressure (altimeter): 29.71 inches Hg (1006.2 mb)
Winds: from the SSE (150 degrees) at 9 MPH (8 knots; 4.2 m/s)
Visibility: 10 or more miles (16+ km)
Ceiling: at least 12,000 feet AGL
Clouds: sky clear below 12,000 feet AGL
Weather: automated observation with no human augmentation;
there may or may not be significant weather present at this time

METAR text: K2G4 120110Z AUTO 14007KT 10SM CLR 01/M08 A2971 RMK AO1
Conditions at: K2G4 (GARRETT CO , MD, US) observed 0110 UTC 12 December 2017
Temperature: 1.0°C (34°F)
Dewpoint: -8.0°C (18°F) [RH = 51%]
Pressure (altimeter): 29.71 inches Hg (1006.2 mb)
Winds: from the SE (140 degrees) at 8 MPH (7 knots; 3.6 m/s)
Visibility: 10 or more miles (16+ km)
Ceiling: at least 12,000 feet AGL
Clouds: sky clear below 12,000 feet AGL
Weather: automated observation with no human augmentation;
there may or may not be significant weather present at this time

METAR text: K2G4 120050Z AUTO 15008KT 10SM CLR 01/M08 A2972 RMK AO1
Conditions at: K2G4 (GARRETT CO , MD, US) observed 0050 UTC 12 December 2017
Temperature: 1.0°C (34°F)
Dewpoint: -8.0°C (18°F) [RH = 51%]
Pressure (altimeter): 29.72 inches Hg (1006.5 mb)
Winds: from the SSE (150 degrees) at 9 MPH (8 knots; 4.2 m/s)
Visibility: 10 or more miles (16+ km)
Ceiling: at least 12,000 feet AGL
Clouds: sky clear below 12,000 feet AGL
Weather: automated observation with no human augmentation;
there may or may not be significant weather present at this time

METAR text: K2G4 120030Z AUTO 16008KT 10SM CLR 01/M07 A2972 RMK AO1
Conditions at: K2G4 (GARRETT CO , MD, US) observed 0030 UTC 12 December 2017
Temperature: 1.0°C (34°F)
Dewpoint: -7.0°C (19°F) [RH = 55%]
Pressure (altimeter): 29.72 inches Hg (1006.5 mb)
Winds: from the SSE (160 degrees) at 9 MPH (8 knots; 4.2 m/s)
Visibility: 10 or more miles (16+ km)
Ceiling: at least 12,000 feet AGL
Clouds: sky clear below 12,000 feet AGL
Weather: automated observation with no human augmentation;
there may or may not be significant weather present at this time

METAR text: K2G4 120010Z AUTO 16010G14KT 10SM CLR 01/M07 A2973 RMK AO1
Conditions at: K2G4 (GARRETT CO , MD, US) observed 0010 UTC 12 December 2017
Temperature: 1.0°C (34°F)
Dewpoint: -7.0°C (19°F) [RH = 55%]
Pressure (altimeter): 29.73 inches Hg (1006.9 mb)
Winds: from the SSE (160 degrees) at 12 MPH (10 knots; 5.2 m/s)
gusting to 16 MPH (14 knots; 7.3 m/s)
Visibility: 10 or more miles (16+ km)
Ceiling: at least 12,000 feet AGL
Clouds: sky clear below 12,000 feet AGL
Weather: automated observation with no human augmentation;
there may or may not be significant weather present at this time

METAR text: K2G4 112350Z AUTO 17009KT 10SM SCT046 01/M07 A2974 RMK AO1
Conditions at: K2G4 (GARRETT CO , MD, US) observed 2350 UTC 11 December 2017
Temperature: 1.0°C (34°F)
Dewpoint: -7.0°C (19°F) [RH = 55%]
Pressure (altimeter): 29.74 inches Hg (1007.2 mb)
Winds: from the S (170 degrees) at 10 MPH (9 knots; 4.7 m/s)
Visibility: 10 or more miles (16+ km)
Ceiling: at least 12,000 feet AGL
Clouds: scattered clouds at 4600 feet AGL
Weather: automated observation with no human augmentation;
there may or may not be significant weather present at this time

METAR text: K2G4 112330Z AUTO 18010KT 10SM BKN046 01/M07 A2975 RMK AO1
Conditions at: K2G4 (GARRETT CO , MD, US) observed 2330 UTC 11 December 2017
Temperature: 1.0°C (34°F)
Dewpoint: -7.0°C (19°F) [RH = 55%]
Pressure (altimeter): 29.75 inches Hg (1007.5 mb)
Winds: from the S (180 degrees) at 12 MPH (10 knots; 5.2 m/s)
Visibility: 10 or more miles (16+ km)
Ceiling: 4600 feet AGL
Clouds: broken clouds at 4600 feet AGL
Weather: automated observation with no human augmentation;
there may or may not be significant weather present at this time

METAR text: K2G4 112310Z AUTO 17011KT 10SM BKN046 01/M07 A2975 RMK AO1
Conditions at: K2G4 (GARRETT CO , MD, US) observed 2310 UTC 11 December 2017
Temperature: 1.0°C (34°F)
Dewpoint: -7.0°C (19°F) [RH = 55%]
Pressure (altimeter): 29.75 inches Hg (1007.5 mb)
Winds: from the S (170 degrees) at 13 MPH (11 knots; 5.7 m/s)
Visibility: 10 or more miles (16+ km)
Ceiling: 4600 feet AGL
Clouds: broken clouds at 4600 feet AGL
Weather: automated observation with no human augmentation;
there may or may not be significant weather present at this time

METAR text: K2G4 112250Z AUTO 18010KT 10SM SCT048 BKN060 00/M08 A2977 RMK AO1
Conditions at: K2G4 (GARRETT CO , MD, US) observed 2250 UTC 11 December 2017
Temperature: 0.0°C (32°F)
Dewpoint: -8.0°C (18°F) [RH = 55%]
Pressure (altimeter): 29.77 inches Hg (1008.2 mb)
Winds: from the S (180 degrees) at 12 MPH (10 knots; 5.2 m/s)
Visibility: 10 or more miles (16+ km)
Ceiling: 6000 feet AGL
Clouds: scattered clouds at 4800 feet AGL
broken clouds at 6000 feet AGL
Weather: automated observation with no human augmentation;
there may or may not be significant weather present at this time

METAR text: K2G4 112230Z AUTO 18009KT 10SM SCT060 00/M08 A2977 RMK AO1
Conditions at: K2G4 (GARRETT CO , MD, US) observed 2230 UTC 11 December 2017
Temperature: 0.0°C (32°F)
Dewpoint: -8.0°C (18°F) [RH = 55%]
Pressure (altimeter): 29.77 inches Hg (1008.2 mb)
Winds: from the S (180 degrees) at 10 MPH (9 knots; 4.7 m/s)
Visibility: 10 or more miles (16+ km)
Ceiling: at least 12,000 feet AGL
Clouds: scattered clouds at 6000 feet AGL
Weather: automated observation with no human augmentation;
there may or may not be significant weather present at this time

METAR text: K2G4 112210Z AUTO 18008KT 10SM SCT060 00/M08 A2977 RMK AO1
Conditions at: K2G4 (GARRETT CO , MD, US) observed 2210 UTC 11 December 2017
Temperature: 0.0°C (32°F)
Dewpoint: -8.0°C (18°F) [RH = 55%]
Pressure (altimeter): 29.77 inches Hg (1008.2 mb)
Winds: from the S (180 degrees) at 9 MPH (8 knots; 4.2 m/s)
Visibility: 10 or more miles (16+ km)
Ceiling: at least 12,000 feet AGL
Clouds: scattered clouds at 6000 feet AGL
Weather: automated observation with no human augmentation;
there may or may not be significant weather present at this time

METAR text: K2G4 112150Z AUTO 18008KT 10SM SCT060 00/M08 A2978 RMK AO1
Conditions at: K2G4 (GARRETT CO , MD, US) observed 2150 UTC 11 December 2017
Temperature: 0.0°C (32°F)
Dewpoint: -8.0°C (18°F) [RH = 55%]
Pressure (altimeter): 29.78 inches Hg (1008.5 mb)
Winds: from the S (180 degrees) at 9 MPH (8 knots; 4.2 m/s)
Visibility: 10 or more miles (16+ km)
Ceiling: at least 12,000 feet AGL
Clouds: scattered clouds at 6000 feet AGL
Weather: automated observation with no human augmentation;
there may or may not be significant weather present at this time

METAR text: K2G4 112130Z AUTO 20007KT 10SM CLR 01/M08 A2979 RMK AO1
Conditions at: K2G4 (GARRETT CO , MD, US) observed 2130 UTC 11 December 2017
Temperature: 1.0°C (34°F)
Dewpoint: -8.0°C (18°F) [RH = 51%]
Pressure (altimeter): 29.79 inches Hg (1008.9 mb)
Winds: from the SSW (200 degrees) at 8 MPH (7 knots; 3.6 m/s)
Visibility: 10 or more miles (16+ km)
Ceiling: at least 12,000 feet AGL
Clouds: sky clear below 12,000 feet AGL
Weather: automated observation with no human augmentation;
there may or may not be significant weather present at this time

METAR text: K2G4 112110Z AUTO 22006KT 10SM CLR 00/M08 A2980 RMK AO1
Conditions at: K2G4 (GARRETT CO , MD, US) observed 2110 UTC 11 December 2017
Temperature: 0.0°C (32°F)
Dewpoint: -8.0°C (18°F) [RH = 55%]
Pressure (altimeter): 29.80 inches Hg (1009.2 mb)
Winds: from the SW (220 degrees) at 7 MPH (6 knots; 3.1 m/s)
Visibility: 10 or more miles (16+ km)
Ceiling: at least 12,000 feet AGL
Clouds: sky clear below 12,000 feet AGL
Weather: automated observation with no human augmentation;
there may or may not be significant weather present at this time

METAR text: K2G4 112050Z AUTO 22008KT 10SM CLR 00/M08 A2981 RMK AO1
Conditions at: K2G4 (GARRETT CO , MD, US) observed 2050 UTC 11 December 2017
Temperature: 0.0°C (32°F)
Dewpoint: -8.0°C (18°F) [RH = 55%]
Pressure (altimeter): 29.81 inches Hg (1009.6 mb)
Winds: from the SW (220 degrees) at 9 MPH (8 knots; 4.2 m/s)
Visibility: 10 or more miles (16+ km)
Ceiling: at least 12,000 feet AGL
Clouds: sky clear below 12,000 feet AGL
Weather: automated observation with no human augmentation;
there may or may not be significant weather present at this time

METAR text: K2G4 112030Z AUTO 22007KT 10SM CLR 00/M08 A2982 RMK AO1
Conditions at: K2G4 (GARRETT CO , MD, US) observed 2030 UTC 11 December 2017
Temperature: 0.0°C (32°F)
Dewpoint: -8.0°C (18°F) [RH = 55%]
Pressure (altimeter): 29.82 inches Hg (1009.9 mb)
Winds: from the SW (220 degrees) at 8 MPH (7 knots; 3.6 m/s)
Visibility: 10 or more miles (16+ km)
Ceiling: at least 12,000 feet AGL
Clouds: sky clear below 12,000 feet AGL
Weather: automated observation with no human augmentation;
there may or may not be significant weather present at this time

METAR text: K2G4 112010Z AUTO 21007KT 10SM SCT065 00/M08 A2981 RMK AO1
Conditions at: K2G4 (GARRETT CO , MD, US) observed 2010 UTC 11 December 2017
Temperature: 0.0°C (32°F)
Dewpoint: -8.0°C (18°F) [RH = 55%]
Pressure (altimeter): 29.81 inches Hg (1009.6 mb)
Winds: from the SSW (210 degrees) at 8 MPH (7 knots; 3.6 m/s)
Visibility: 10 or more miles (16+ km)
Ceiling: at least 12,000 feet AGL
Clouds: scattered clouds at 6500 feet AGL
Weather: automated observation with no human augmentation;
there may or may not be significant weather present at this time

METAR text: K2G4 111950Z AUTO 21007KT 10SM CLR 00/M08 A2982 RMK AO1
Conditions at: K2G4 (GARRETT CO , MD, US) observed 1950 UTC 11 December 2017
Temperature: 0.0°C (32°F)
Dewpoint: -8.0°C (18°F) [RH = 55%]
Pressure (altimeter): 29.82 inches Hg (1009.9 mb)
Winds: from the SSW (210 degrees) at 8 MPH (7 knots; 3.6 m/s)
Visibility: 10 or more miles (16+ km)
Ceiling: at least 12,000 feet AGL
Clouds: sky clear below 12,000 feet AGL
Weather: automated observation with no human augmentation;
there may or may not be significant weather present at this time

METAR text: K2G4 111930Z AUTO 23006KT 10SM CLR 00/M08 A2984 RMK AO1
Conditions at: K2G4 (GARRETT CO , MD, US) observed 1930 UTC 11 December 2017
Temperature: 0.0°C (32°F)
Dewpoint: -8.0°C (18°F) [RH = 55%]
Pressure (altimeter): 29.84 inches Hg (1010.6 mb)
Winds: from the SW (230 degrees) at 7 MPH (6 knots; 3.1 m/s)
Visibility: 10 or more miles (16+ km)
Ceiling: at least 12,000 feet AGL
Clouds: sky clear below 12,000 feet AGL
Weather: automated observation with no human augmentation;
there may or may not be significant weather present at this time

METAR text: K2G4 111910Z AUTO 22007KT 10SM CLR 00/M07 A2985 RMK AO1
Conditions at: K2G4 (GARRETT CO , MD, US) observed 1910 UTC 11 December 2017
Temperature: 0.0°C (32°F)
Dewpoint: -7.0°C (19°F) [RH = 59%]
Pressure (altimeter): 29.85 inches Hg (1010.9 mb)
Winds: from the SW (220 degrees) at 8 MPH (7 knots; 3.6 m/s)
Visibility: 10 or more miles (16+ km)
Ceiling: at least 12,000 feet AGL
Clouds: sky clear below 12,000 feet AGL
Weather: automated observation with no human augmentation;
there may or may not be significant weather present at this time

METAR text: K2G4 111850Z AUTO 22007KT 10SM CLR 00/M07 A2987 RMK AO1
Conditions at: K2G4 (GARRETT CO , MD, US) observed 1850 UTC 11 December 2017
Temperature: 0.0°C (32°F)
Dewpoint: -7.0°C (19°F) [RH = 59%]
Pressure (altimeter): 29.87 inches Hg (1011.6 mb)
Winds: from the SW (220 degrees) at 8 MPH (7 knots; 3.6 m/s)
Visibility: 10 or more miles (16+ km)
Ceiling: at least 12,000 feet AGL
Clouds: sky clear below 12,000 feet AGL
Weather: automated observation with no human augmentation;
there may or may not be significant weather present at this time

METAR text: K2G4 111830Z AUTO 20008KT 10SM CLR 00/M07 A2986 RMK AO1
Conditions at: K2G4 (GARRETT CO , MD, US) observed 1830 UTC 11 December 2017
Temperature: 0.0°C (32°F)
Dewpoint: -7.0°C (19°F) [RH = 59%]
Pressure (altimeter): 29.86 inches Hg (1011.3 mb)
Winds: from the SSW (200 degrees) at 9 MPH (8 knots; 4.2 m/s)
Visibility: 10 or more miles (16+ km)
Ceiling: at least 12,000 feet AGL
Clouds: sky clear below 12,000 feet AGL
Weather: automated observation with no human augmentation;
there may or may not be significant weather present at this time

METAR text: K2G4 111810Z AUTO 22010G15KT 10SM CLR 00/M06 A2987 RMK AO1
Conditions at: K2G4 (GARRETT CO , MD, US) observed 1810 UTC 11 December 2017
Temperature: 0.0°C (32°F)
Dewpoint: -6.0°C (21°F) [RH = 64%]
Pressure (altimeter): 29.87 inches Hg (1011.6 mb)
Winds: from the SW (220 degrees) at 12 MPH (10 knots; 5.2 m/s)
gusting to 17 MPH (15 knots; 7.8 m/s)
Visibility: 10 or more miles (16+ km)
Ceiling: at least 12,000 feet AGL
Clouds: sky clear below 12,000 feet AGL
Weather: automated observation with no human augmentation;
there may or may not be significant weather present at this time

METAR text: K2G4 111750Z AUTO 22011G15KT 10SM CLR 00/M07 A2989 RMK AO1
Conditions at: K2G4 (GARRETT CO , MD, US) observed 1750 UTC 11 December 2017
Temperature: 0.0°C (32°F)
Dewpoint: -7.0°C (19°F) [RH = 59%]
Pressure (altimeter): 29.89 inches Hg (1012.3 mb)
Winds: from the SW (220 degrees) at 13 MPH (11 knots; 5.7 m/s)
gusting to 17 MPH (15 knots; 7.8 m/s)
Visibility: 10 or more miles (16+ km)
Ceiling: at least 12,000 feet AGL
Clouds: sky clear below 12,000 feet AGL
Weather: automated observation with no human augmentation;
there may or may not be significant weather present at this time

METAR text: K2G4 111730Z AUTO 22009KT 10SM CLR 00/M06 A2988 RMK AO1
Conditions at: K2G4 (GARRETT CO , MD, US) observed 1730 UTC 11 December 2017
Temperature: 0.0°C (32°F)
Dewpoint: -6.0°C (21°F) [RH = 64%]
Pressure (altimeter): 29.88 inches Hg (1011.9 mb)
Winds: from the SW (220 degrees) at 10 MPH (9 knots; 4.7 m/s)
Visibility: 10 or more miles (16+ km)
Ceiling: at least 12,000 feet AGL
Clouds: sky clear below 12,000 feet AGL
Weather: automated observation with no human augmentation;
there may or may not be significant weather present at this time

METAR text: K2G4 111710Z AUTO 22007KT 192V252 10SM CLR 00/M06 A2989 RMK AO1
Conditions at: K2G4 (GARRETT CO , MD, US) observed 1710 UTC 11 December 2017
Temperature: 0.0°C (32°F)
Dewpoint: -6.0°C (21°F) [RH = 64%]
Pressure (altimeter): 29.89 inches Hg (1012.3 mb)
Winds: from the SW (220 degrees) at 8 MPH (7 knots; 3.6 m/s)
Visibility: 10 or more miles (16+ km)
Ceiling: at least 12,000 feet AGL
Clouds: sky clear below 12,000 feet AGL
Weather: automated observation with no human augmentation;
there may or may not be significant weather present at this time

METAR text: K2G4 111650Z AUTO 21007KT 182V242 10SM CLR M01/M07 A2989 RMK AO1
Conditions at: K2G4 (GARRETT CO , MD, US) observed 1650 UTC 11 December 2017
Temperature: -1.0°C (30°F)
Dewpoint: -7.0°C (19°F) [RH = 64%]
Pressure (altimeter): 29.89 inches Hg (1012.3 mb)
Winds: from the SSW (210 degrees) at 8 MPH (7 knots; 3.6 m/s)
Visibility: 10 or more miles (16+ km)
Ceiling: at least 12,000 feet AGL
Clouds: sky clear below 12,000 feet AGL
Weather: automated observation with no human augmentation;
there may or may not be significant weather present at this time

METAR text: K2G4 111630Z AUTO 23007KT 10SM CLR M01/M07 A2989 RMK AO1
Conditions at: K2G4 (GARRETT CO , MD, US) observed 1630 UTC 11 December 2017
Temperature: -1.0°C (30°F)
Dewpoint: -7.0°C (19°F) [RH = 64%]
Pressure (altimeter): 29.89 inches Hg (1012.3 mb)
Winds: from the SW (230 degrees) at 8 MPH (7 knots; 3.6 m/s)
Visibility: 10 or more miles (16+ km)
Ceiling: at least 12,000 feet AGL
Clouds: sky clear below 12,000 feet AGL
Weather: automated observation with no human augmentation;
there may or may not be significant weather present at this time

METAR text: K2G4 111610Z AUTO 22007KT 10SM CLR M01/M07 A2990 RMK AO1
Conditions at: K2G4 (GARRETT CO , MD, US) observed 1610 UTC 11 December 2017
Temperature: -1.0°C (30°F)
Dewpoint: -7.0°C (19°F) [RH = 64%]
Pressure (altimeter): 29.90 inches Hg (1012.6 mb)
Winds: from the SW (220 degrees) at 8 MPH (7 knots; 3.6 m/s)
Visibility: 10 or more miles (16+ km)
Ceiling: at least 12,000 feet AGL
Clouds: sky clear below 12,000 feet AGL
Weather: automated observation with no human augmentation;
there may or may not be significant weather present at this time

METAR text: K2G4 111550Z AUTO 23005KT 10SM CLR M01/M07 A2992 RMK AO1
Conditions at: K2G4 (GARRETT CO , MD, US) observed 1550 UTC 11 December 2017
Temperature: -1.0°C (30°F)
Dewpoint: -7.0°C (19°F) [RH = 64%]
Pressure (altimeter): 29.92 inches Hg (1013.3 mb)
Winds: from the SW (230 degrees) at 6 MPH (5 knots; 2.6 m/s)
Visibility: 10 or more miles (16+ km)
Ceiling: at least 12,000 feet AGL
Clouds: sky clear below 12,000 feet AGL
Weather: automated observation with no human augmentation;
there may or may not be significant weather present at this time